Time;durP1;ratioP1;P1;durP2;ratioP2;P2;SDS_P1;SDS_P2;PMS_P1;PMS_P2;Temp;Humidity;BMP_temperature;BMP_pressure;BME280_temperature;BME280_humidity;BME280_pressure;Samples;Min_cycle;Max_cycle;Signal;HPM_P1;HPM_P2
2024/03/12 00:00:28;;;;;;;53.22;29.80;;;8.90;99.90;;;;;;5095097;28;20078;-69
2024/03/12 00:02:55;;;;;;;49.22;30.10;;;8.90;99.90;;;;;;5094467;28;20044;-69
2024/03/12 00:05:21;;;;;;;55.15;31.00;;;8.80;99.90;;;;;;5076857;28;20434;-69
2024/03/12 00:07:48;;;;;;;53.90;32.92;;;8.80;99.90;;;;;;5059889;28;20491;-69
2024/03/12 00:10:17;;;;;;;49.97;29.75;;;8.90;99.90;;;;;;5076419;28;20523;-69
2024/03/12 00:12:49;;;;;;;54.08;32.00;;;8.90;99.90;;;;;;5094374;28;20404;-69
2024/03/12 00:15:21;;;;;;;51.78;31.73;;;8.90;99.90;;;;;;5094817;28;20495;-69
2024/03/12 00:17:49;;;;;;;58.83;33.88;;;8.80;99.90;;;;;;5076923;28;20071;-69
2024/03/12 00:20:17;;;;;;;57.80;34.03;;;8.80;99.90;;;;;;5094769;28;20411;-69
2024/03/12 00:22:47;;;;;;;54.05;32.55;;;8.80;99.90;;;;;;5076277;28;20474;-69
2024/03/12 00:25:16;;;;;;;57.10;32.70;;;8.80;99.90;;;;;;5094809;28;20065;-69
2024/03/12 00:27:43;;;;;;;55.63;34.15;;;8.80;99.90;;;;;;5076588;28;20040;-69
2024/03/12 00:30:09;;;;;;;56.97;34.42;;;8.80;99.90;;;;;;5094242;28;20051;-69
2024/03/12 00:32:39;;;;;;;56.45;32.08;;;8.80;99.90;;;;;;5094051;28;20500;-69
2024/03/12 00:35:06;;;;;;;55.60;33.08;;;8.70;99.90;;;;;;5094369;28;20043;-69
2024/03/12 00:37:33;;;;;;;58.53;32.80;;;8.80;99.90;;;;;;5094671;28;20449;-69
2024/03/12 00:39:59;;;;;;;57.17;31.65;;;8.80;99.90;;;;;;5094281;28;20036;-69
2024/03/12 00:42:28;;;;;;;59.00;33.13;;;8.70;99.90;;;;;;5093853;28;20048;-69
2024/03/12 00:44:53;;;;;;;58.55;32.75;;;8.80;99.90;;;;;;5076495;28;20040;-69
2024/03/12 00:47:21;;;;;;;51.90;31.27;;;8.80;99.90;;;;;;5094605;28;20051;-69
2024/03/12 00:49:48;;;;;;;57.03;33.40;;;8.70;99.90;;;;;;5093850;28;20553;-69
2024/03/12 00:52:14;;;;;;;58.15;33.20;;;8.70;99.90;;;;;;5093538;28;20119;-69
2024/03/12 00:54:39;;;;;;;58.75;33.30;;;8.80;99.90;;;;;;5094274;28;20107;-69
2024/03/12 00:57:05;;;;;;;53.75;32.70;;;8.80;99.90;;;;;;5093840;28;20403;-69
2024/03/12 00:59:34;;;;;;;54.95;31.00;;;8.80;99.90;;;;;;5094087;28;20114;-69
2024/03/12 01:02:01;;;;;;;59.13;32.65;;;8.70;99.90;;;;;;5074609;28;20040;-69
2024/03/12 01:04:27;;;;;;;56.00;33.08;;;8.70;99.90;;;;;;5075796;28;20051;-69
2024/03/12 01:06:52;;;;;;;53.15;32.50;;;8.60;99.90;;;;;;5093987;28;20036;-69
2024/03/12 01:09:20;;;;;;;58.88;33.88;;;8.70;99.90;;;;;;5093659;28;20412;-69
2024/03/12 01:11:47;;;;;;;62.55;33.33;;;8.60;99.90;;;;;;5075082;28;20510;-69
2024/03/12 01:14:17;;;;;;;57.88;34.33;;;8.60;99.90;;;;;;5093730;28;20403;-69
2024/03/12 01:16:44;;;;;;;56.05;33.85;;;8.60;99.90;;;;;;5075627;28;20043;-69
2024/03/12 01:19:11;;;;;;;55.58;32.60;;;8.70;99.90;;;;;;5093460;28;20089;-69
2024/03/12 01:21:39;;;;;;;57.28;33.72;;;8.60;99.90;;;;;;5074932;28;20131;-69
2024/03/12 01:24:05;;;;;;;57.30;33.17;;;8.70;99.90;;;;;;5075499;28;20047;-69
2024/03/12 01:26:31;;;;;;;58.38;32.65;;;8.60;99.90;;;;;;5093814;28;20052;-69
2024/03/12 01:28:57;;;;;;;56.85;33.28;;;8.70;99.90;;;;;;5093564;28;20043;-69
2024/03/12 01:31:23;;;;;;;55.97;32.60;;;8.60;99.90;;;;;;5092713;28;20503;-69
2024/03/12 01:33:49;;;;;;;57.22;33.30;;;8.50;99.90;;;;;;5093464;28;20036;-69
2024/03/12 01:36:20;;;;;;;62.63;34.55;;;8.60;99.90;;;;;;5093332;28;20043;-69
2024/03/12 01:38:54;;;;;;;54.53;32.25;;;8.60;99.90;;;;;;5092988;28;20036;-69
2024/03/12 01:41:20;;;;;;;55.15;32.33;;;8.60;99.90;;;;;;5092791;28;20114;-69
2024/03/12 01:44:02;;;;;;;54.03;31.70;;;8.50;99.90;;;;;;5093458;28;20036;-69
2024/03/12 01:46:30;;;;;;;67.70;36.33;;;8.60;99.90;;;;;;5075350;28;20118;-69
2024/03/12 01:48:58;;;;;;;57.22;32.50;;;8.50;99.90;;;;;;5092966;28;20058;-70
2024/03/12 01:51:26;;;;;;;57.10;33.38;;;8.50;99.90;;;;;;5092762;28;20058;-69
2024/03/12 01:53:52;;;;;;;64.28;34.97;;;8.50;99.90;;;;;;5093533;28;20055;-69
2024/03/12 01:56:18;;;;;;;62.00;35.25;;;8.50;99.90;;;;;;5093182;28;20455;-69
2024/03/12 01:58:44;;;;;;;54.45;33.22;;;8.50;99.90;;;;;;5074755;28;20036;-69
2024/03/12 02:01:10;;;;;;;60.00;34.72;;;8.50;99.90;;;;;;5092740;28;20048;-69
2024/03/12 02:03:36;;;;;;;57.85;32.33;;;8.50;99.90;;;;;;5092311;28;20039;-69
2024/03/12 02:06:02;;;;;;;60.03;35.10;;;8.50;99.90;;;;;;5092738;28;20510;-69
2024/03/12 02:08:29;;;;;;;57.78;35.13;;;8.50;99.90;;;;;;5057945;28;20126;-69
2024/03/12 02:10:54;;;;;;;63.08;32.65;;;8.50;99.90;;;;;;5092702;28;20506;-69
2024/03/12 02:13:21;;;;;;;62.70;33.83;;;8.60;99.90;;;;;;5092161;28;20122;-69
2024/03/12 02:15:46;;;;;;;58.15;32.65;;;8.50;99.90;;;;;;5074463;28;20032;-69
2024/03/12 02:18:12;;;;;;;62.67;33.53;;;8.40;99.90;;;;;;5092584;28;20043;-70
2024/03/12 02:20:38;;;;;;;55.78;33.63;;;8.50;99.90;;;;;;5092254;28;20042;-69
2024/03/12 02:23:04;;;;;;;57.55;33.95;;;8.40;99.90;;;;;;5091915;28;20044;-69
2024/03/12 02:25:30;;;;;;;61.65;34.35;;;8.50;99.90;;;;;;5087800;28;20595;-70
2024/03/12 02:27:56;;;;;;;59.95;34.17;;;8.50;99.90;;;;;;5091671;28;20036;-70
2024/03/12 02:30:22;;;;;;;55.90;32.67;;;8.50;99.90;;;;;;5073298;28;20557;-70
2024/03/12 02:32:48;;;;;;;61.75;35.38;;;8.50;99.90;;;;;;5073723;28;20036;-70
2024/03/12 02:35:15;;;;;;;64.55;35.45;;;8.60;99.90;;;;;;5092440;28;20032;-70
2024/03/12 02:37:41;;;;;;;59.45;34.05;;;8.50;99.90;;;;;;5092419;28;20479;-70
2024/03/12 02:40:14;;;;;;;58.17;34.70;;;8.50;99.90;;;;;;5073547;28;20051;-70
2024/03/12 02:42:41;;;;;;;56.08;32.38;;;8.50;99.90;;;;;;5091619;28;20046;-70
2024/03/12 02:45:07;;;;;;;62.83;36.38;;;8.50;99.90;;;;;;5092153;28;20073;-70
2024/03/12 02:47:32;;;;;;;66.70;35.67;;;8.50;99.90;;;;;;5073916;28;20040;-70
2024/03/12 02:49:59;;;;;;;63.97;35.28;;;8.50;99.90;;;;;;5091776;28;20427;-70
2024/03/12 02:52:25;;;;;;;64.85;35.55;;;8.50;99.90;;;;;;5073380;28;20516;-70
2024/03/12 02:54:50;;;;;;;62.83;36.03;;;8.50;99.90;;;;;;5092018;28;20120;-70
2024/03/12 02:57:17;;;;;;;65.32;35.92;;;8.40;99.90;;;;;;5091969;28;20036;-70
2024/03/12 02:59:43;;;;;;;67.28;36.22;;;8.40;99.90;;;;;;5091525;28;20040;-70
2024/03/12 03:02:09;;;;;;;65.43;35.65;;;8.40;99.90;;;;;;5091030;28;20089;-70
2024/03/12 03:04:39;;;;;;;73.65;38.13;;;8.40;99.90;;;;;;5091753;28;20210;-70
2024/03/12 03:07:05;;;;;;;75.43;39.25;;;8.40;99.90;;;;;;5073579;28;20039;-70
2024/03/12 03:09:31;;;;;;;66.05;36.17;;;8.50;99.90;;;;;;5091379;28;20032;-70
2024/03/12 03:11:58;;;;;;;75.65;39.92;;;8.30;99.90;;;;;;5056395;28;20044;-70
2024/03/12 03:14:24;;;;;;;75.63;39.67;;;8.40;99.90;;;;;;5056938;28;20403;-70
2024/03/12 03:16:49;;;;;;;69.70;37.88;;;8.40;99.90;;;;;;5091427;28;20036;-70
2024/03/12 03:19:15;;;;;;;75.88;39.63;;;8.40;99.90;;;;;;5091541;28;20036;-70
2024/03/12 03:21:40;;;;;;;70.30;38.40;;;8.30;99.90;;;;;;5091064;28;20040;-70
2024/03/12 03:24:06;;;;;;;75.50;38.33;;;8.40;99.90;;;;;;5091551;28;20453;-70
2024/03/12 03:26:32;;;;;;;71.28;37.75;;;8.30;99.90;;;;;;5091056;28;20044;-70
2024/03/12 03:28:57;;;;;;;74.97;39.28;;;8.40;99.90;;;;;;5073250;28;20039;-70
2024/03/12 03:31:25;;;;;;;73.78;38.13;;;8.30;99.90;;;;;;5090679;28;20467;-70
2024/03/12 03:33:50;;;;;;;82.72;39.22;;;8.30;99.90;;;;;;5091721;28;20067;-70
2024/03/12 03:36:16;;;;;;;71.15;37.90;;;8.30;99.90;;;;;;5091541;28;20067;-70
2024/03/12 03:38:43;;;;;;;69.97;36.80;;;8.40;99.90;;;;;;5091239;28;20542;-70
2024/03/12 03:41:09;;;;;;;72.72;37.85;;;8.30;99.90;;;;;;5091367;28;20085;-70
2024/03/12 03:43:35;;;;;;;67.90;35.83;;;8.30;99.90;;;;;;5055993;28;20043;-70
2024/03/12 03:46:03;;;;;;;68.07;37.28;;;8.40;99.90;;;;;;5091541;28;20119;-70
2024/03/12 03:48:29;;;;;;;61.05;35.80;;;8.40;99.90;;;;;;5073247;28;20496;-70
2024/03/12 03:50:55;;;;;;;74.88;36.92;;;8.40;99.90;;;;;;5073131;28;20044;-70
2024/03/12 03:53:21;;;;;;;70.40;36.92;;;8.40;99.90;;;;;;5072756;28;20169;-70
2024/03/12 03:55:47;;;;;;;73.10;38.90;;;8.40;99.90;;;;;;5091346;28;20077;-70
2024/03/12 03:58:12;;;;;;;77.63;40.72;;;8.50;99.90;;;;;;5091206;28;20514;-70
2024/03/12 04:00:39;;;;;;;76.43;39.03;;;8.40;99.90;;;;;;5072871;28;20044;-70
2024/03/12 04:03:06;;;;;;;73.10;39.25;;;8.50;99.90;;;;;;5090815;28;20483;-70
2024/03/12 04:05:33;;;;;;;70.10;38.03;;;8.50;99.90;;;;;;5091265;28;20032;-70
2024/03/12 04:08:02;;;;;;;72.22;37.78;;;8.40;99.90;;;;;;5091327;28;20074;-70
2024/03/12 04:10:30;;;;;;;69.18;38.15;;;8.40;99.90;;;;;;5072923;28;20454;-70
2024/03/12 04:12:56;;;;;;;73.55;38.30;;;8.40;99.90;;;;;;5072545;28;20047;-70
2024/03/12 04:15:23;;;;;;;76.55;39.85;;;8.40;99.90;;;;;;5091243;28;20051;-70
2024/03/12 04:17:49;;;;;;;75.03;38.13;;;8.40;99.90;;;;;;5091133;28;20506;-70
2024/03/12 04:20:16;;;;;;;71.55;38.88;;;8.40;99.90;;;;;;5072702;28;20123;-70
2024/03/12 04:22:43;;;;;;;74.95;40.05;;;8.40;99.90;;;;;;5090274;28;20119;-70
2024/03/12 04:25:10;;;;;;;75.38;37.50;;;8.50;99.90;;;;;;5091017;28;20480;-70
2024/03/12 04:27:39;;;;;;;76.10;39.35;;;8.40;99.90;;;;;;5090821;28;20089;-70
2024/03/12 04:30:11;;;;;;;81.30;42.88;;;8.40;99.90;;;;;;5072454;28;20132;-70
2024/03/12 04:32:38;;;;;;;80.83;40.87;;;8.40;99.90;;;;;;5090424;28;20036;-70
2024/03/12 04:35:05;;;;;;;79.90;40.42;;;8.50;99.90;;;;;;5091063;28;20044;-70
2024/03/12 04:37:32;;;;;;;78.07;41.63;;;8.40;99.90;;;;;;5091206;28;20427;-70
2024/03/12 04:40:06;;;;;;;81.40;42.35;;;8.40;99.90;;;;;;5094155;28;20545;-71
2024/03/12 04:42:35;;;;;;;80.10;42.97;;;8.30;99.90;;;;;;5094139;28;20039;-70
2024/03/12 04:45:00;;;;;;;84.82;41.05;;;8.30;99.90;;;;;;5094491;28;20058;-70
2024/03/12 04:47:26;;;;;;;83.30;40.33;;;8.30;99.90;;;;;;5094488;28;20544;-71
2024/03/12 04:49:53;;;;;;;73.97;40.35;;;8.20;99.90;;;;;;5094025;28;20036;-70
2024/03/12 04:52:19;;;;;;;81.18;42.40;;;8.30;99.90;;;;;;5075464;28;20055;-70
2024/03/12 04:54:46;;;;;;;86.30;42.05;;;8.30;99.90;;;;;;5094067;28;20609;-70
2024/03/12 04:57:11;;;;;;;85.30;42.95;;;8.30;99.90;;;;;;5094284;28;20077;-70
2024/03/12 04:59:37;;;;;;;72.25;39.17;;;8.40;99.90;;;;;;5093993;28;20118;-70
2024/03/12 05:02:02;;;;;;;78.60;42.40;;;8.30;99.90;;;;;;5075360;28;20032;-71
2024/03/12 05:04:28;;;;;;;79.05;42.15;;;8.30;99.90;;;;;;5094123;28;20040;-70
2024/03/12 05:06:54;;;;;;;79.22;41.45;;;8.30;99.90;;;;;;5093659;28;20487;-70
2024/03/12 05:09:19;;;;;;;77.13;40.33;;;8.30;99.90;;;;;;5093590;28;20064;-70
2024/03/12 05:11:45;;;;;;;70.65;39.30;;;8.30;99.90;;;;;;5093152;28;20047;-70
2024/03/12 05:14:11;;;;;;;74.20;39.60;;;8.20;99.90;;;;;;5093849;28;20040;-70
2024/03/12 05:16:37;;;;;;;69.00;38.78;;;8.30;99.90;;;;;;5093737;28;20036;-70
2024/03/12 05:19:02;;;;;;;73.75;41.00;;;8.40;99.90;;;;;;5058784;28;20042;-70
2024/03/12 05:21:28;;;;;;;77.55;41.13;;;8.40;99.90;;;;;;5092864;28;20040;-71
2024/03/12 05:23:54;;;;;;;73.63;38.72;;;8.30;99.90;;;;;;5075392;28;20039;-70
2024/03/12 05:26:26;;;;;;;74.35;40.70;;;8.40;99.90;;;;;;5093361;28;20514;-71
2024/03/12 05:28:58;;;;;;;78.97;40.10;;;8.30;99.90;;;;;;5075146;28;20043;-70
2024/03/12 05:31:36;;;;;;;65.30;38.03;;;8.30;99.90;;;;;;5074631;28;20547;-70
2024/03/12 05:34:02;;;;;;;69.80;38.38;;;8.30;99.90;;;;;;5093420;28;20036;-70
2024/03/12 05:36:40;;;;;;;70.60;39.90;;;8.30;99.90;;;;;;5093247;28;20453;-70
2024/03/12 05:39:18;;;;;;;69.18;36.80;;;8.40;99.90;;;;;;5093272;28;20032;-70
2024/03/12 05:48:07;;;;;;;71.10;38.72;;;8.40;99.90;;;;;;5074561;28;20040;-70
2024/03/12 05:50:08;;;;;;;68.70;38.25;;;8.40;99.90;;;;;;5092299;28;20447;-70
2024/03/12 05:52:34;;;;;;;59.25;35.67;;;8.40;99.90;;;;;;5092575;28;20028;-70
2024/03/12 05:54:59;;;;;;;56.08;35.40;;;8.30;99.90;;;;;;5092911;28;20555;-70
2024/03/12 05:57:25;;;;;;;67.95;36.42;;;8.30;99.90;;;;;;5093192;28;20039;-71
2024/03/12 05:59:51;;;;;;;63.03;35.97;;;8.40;99.90;;;;;;5092814;28;20036;-70
2024/03/12 06:02:16;;;;;;;64.65;38.25;;;8.40;99.90;;;;;;5073794;28;20071;-70
2024/03/12 06:04:42;;;;;;;63.17;37.42;;;8.30;99.90;;;;;;5092879;28;20043;-70
2024/03/12 06:07:08;;;;;;;62.88;36.85;;;8.40;99.90;;;;;;5092714;28;20078;-70
2024/03/12 06:09:33;;;;;;;73.72;38.90;;;8.40;99.90;;;;;;5092386;28;20036;-70
2024/03/12 06:11:59;;;;;;;67.22;38.33;;;8.40;99.90;;;;;;5091771;28;20408;-70
2024/03/12 06:14:25;;;;;;;62.03;35.45;;;8.30;99.90;;;;;;5092861;28;20066;-70
2024/03/12 06:16:51;;;;;;;65.97;34.63;;;8.30;99.90;;;;;;5074311;28;20040;-70
2024/03/12 06:19:17;;;;;;;63.58;37.75;;;8.40;99.90;;;;;;5092441;28;20077;-70
2024/03/12 06:21:43;;;;;;;67.85;38.70;;;8.30;99.90;;;;;;5091806;28;20077;-70
2024/03/12 06:24:09;;;;;;;68.53;38.40;;;8.20;99.90;;;;;;5092455;28;20075;-70
2024/03/12 06:26:36;;;;;;;59.33;35.55;;;8.30;99.90;;;;;;5092472;28;20040;-70
2024/03/12 06:29:02;;;;;;;62.33;35.78;;;8.20;99.90;;;;;;5092124;28;20522;-70
2024/03/12 06:31:29;;;;;;;64.57;36.45;;;8.40;99.90;;;;;;5091633;28;20064;-70
2024/03/12 06:33:55;;;;;;;63.95;35.85;;;8.30;99.90;;;;;;5092256;28;20551;-70
2024/03/12 06:36:20;;;;;;;67.72;37.22;;;8.30;99.90;;;;;;5073777;28;20154;-71
2024/03/12 06:38:48;;;;;;;69.43;37.72;;;8.30;99.90;;;;;;5091649;28;20043;-71
2024/03/12 06:41:14;;;;;;;66.07;37.15;;;8.30;99.90;;;;;;5091657;28;20603;-71
2024/03/12 06:43:43;;;;;;;69.15;35.92;;;8.30;99.90;;;;;;5073813;28;20704;-71
2024/03/12 06:46:09;;;;;;;63.97;35.45;;;8.30;99.90;;;;;;5073897;28;20150;-70
2024/03/12 06:48:36;;;;;;;65.85;36.22;;;8.20;99.90;;;;;;5091693;28;20488;-71
2024/03/12 06:51:06;;;;;;;63.88;36.72;;;8.30;99.90;;;;;;5091936;28;20522;-71
2024/03/12 06:53:35;;;;;;;65.35;38.17;;;8.10;99.90;;;;;;5091445;28;20036;-71
2024/03/12 06:56:04;;;;;;;64.95;35.08;;;8.30;99.90;;;;;;5092098;28;20036;-71
2024/03/12 06:58:30;;;;;;;68.18;37.03;;;8.20;99.90;;;;;;5091659;28;20036;-71
2024/03/12 07:00:57;;;;;;;63.63;36.10;;;8.30;99.90;;;;;;5091012;28;20043;-72
2024/03/12 07:03:24;;;;;;;64.80;35.97;;;8.30;99.90;;;;;;5091436;28;20051;-71
2024/03/12 07:05:50;;;;;;;65.32;36.88;;;8.20;99.90;;;;;;5073616;28;20032;-71
2024/03/12 07:08:17;;;;;;;60.17;35.17;;;8.30;99.90;;;;;;5091992;28;20040;-69
2024/03/12 07:10:43;;;;;;;66.40;34.88;;;8.30;99.90;;;;;;5091438;28;20117;-70
2024/03/12 07:13:09;;;;;;;68.28;37.63;;;8.20;99.90;;;;;;5091115;28;20556;-69
2024/03/12 07:15:38;;;;;;;66.88;35.22;;;8.30;99.90;;;;;;5091510;28;20036;-69
2024/03/12 07:18:06;;;;;;;69.28;35.63;;;8.30;99.90;;;;;;5091718;28;20032;-69
2024/03/12 07:20:34;;;;;;;75.30;36.00;;;8.30;99.90;;;;;;5091211;28;20044;-69
2024/03/12 07:23:00;;;;;;;69.40;36.70;;;8.20;99.90;;;;;;5072681;28;20043;-70
2024/03/12 07:25:26;;;;;;;62.85;34.83;;;8.30;99.90;;;;;;5073311;28;20114;-70
2024/03/12 07:27:55;;;;;;;62.85;35.20;;;8.30;99.90;;;;;;5091556;28;20068;-69
2024/03/12 07:30:21;;;;;;;66.07;36.28;;;8.20;99.90;;;;;;5091051;28;20036;-69
2024/03/12 07:32:47;;;;;;;62.38;36.35;;;8.30;99.90;;;;;;5090639;28;20034;-69
2024/03/12 07:35:13;;;;;;;58.35;35.25;;;8.30;99.90;;;;;;5091458;28;20044;-69
2024/03/12 07:37:40;;;;;;;62.03;35.78;;;8.30;99.90;;;;;;5091776;28;20039;-69
2024/03/12 07:40:15;;;;;;;62.83;36.10;;;8.30;99.90;;;;;;5091231;28;20035;-69
2024/03/12 07:42:42;;;;;;;73.53;35.90;;;8.40;99.90;;;;;;5090766;28;20111;-69
2024/03/12 07:45:09;;;;;;;66.90;37.72;;;8.40;99.90;;;;;;5091350;28;20048;-69
2024/03/12 07:47:35;;;;;;;70.38;37.95;;;8.40;99.90;;;;;;5091302;28;20648;-69
2024/03/12 07:50:02;;;;;;;63.85;35.17;;;8.40;99.90;;;;;;5091080;28;20043;-70
2024/03/12 07:52:30;;;;;;;65.57;34.55;;;8.40;99.90;;;;;;5090892;28;20039;-70
2024/03/12 07:54:56;;;;;;;74.43;37.55;;;8.40;99.90;;;;;;5073069;28;20048;-69
2024/03/12 07:57:22;;;;;;;69.95;37.22;;;8.50;99.90;;;;;;5091336;28;20437;-69
2024/03/12 07:59:48;;;;;;;72.68;37.42;;;8.50;99.90;;;;;;5072842;28;20036;-69
2024/03/12 08:02:16;;;;;;;71.50;36.53;;;8.40;99.90;;;;;;5090536;28;20036;-69
2024/03/12 08:04:44;;;;;;;75.40;37.85;;;8.50;99.90;;;;;;5091411;28;20040;-69
2024/03/12 08:07:11;;;;;;;73.18;37.83;;;8.50;99.90;;;;;;5091312;28;20036;-69
2024/03/12 08:09:37;;;;;;;74.05;36.65;;;8.50;99.90;;;;;;5090850;28;20408;-69
2024/03/12 08:12:03;;;;;;;70.07;37.92;;;8.70;99.90;;;;;;5090922;28;20040;-70
2024/03/12 08:14:30;;;;;;;80.78;39.80;;;8.60;99.90;;;;;;5093960;28;20048;-70
2024/03/12 08:17:00;;;;;;;77.80;39.67;;;8.60;99.90;;;;;;5075163;28;20142;-70
2024/03/12 08:19:25;;;;;;;78.30;39.88;;;8.70;99.90;;;;;;5093834;28;20040;-70
2024/03/12 08:21:52;;;;;;;81.38;38.80;;;8.70;99.90;;;;;;5094112;28;20411;-70
2024/03/12 08:24:18;;;;;;;75.63;38.65;;;8.70;99.90;;;;;;5094761;28;20039;-70
2024/03/12 08:26:44;;;;;;;70.60;38.60;;;8.60;99.90;;;;;;5094799;28;20043;-70
2024/03/12 08:29:11;;;;;;;76.40;38.65;;;8.70;99.90;;;;;;5094389;28;20403;-70
2024/03/12 08:31:38;;;;;;;84.82;39.92;;;8.70;99.90;;;;;;5075818;28;20482;-70
2024/03/12 08:34:15;;;;;;;78.60;38.97;;;8.70;99.90;;;;;;5094962;28;20040;-71
2024/03/12 08:36:42;;;;;;;77.80;39.25;;;8.60;99.90;;;;;;5076490;28;20048;-71
2024/03/12 08:39:07;;;;;;;79.57;41.25;;;8.70;99.90;;;;;;5094410;28;20409;-71
2024/03/12 08:41:34;;;;;;;82.35;40.03;;;8.70;99.90;;;;;;5075797;28;20043;-71
2024/03/12 08:43:59;;;;;;;80.43;40.50;;;8.60;99.90;;;;;;5076371;28;20055;-71
2024/03/12 08:46:25;;;;;;;95.05;40.85;;;8.50;99.90;;;;;;5094770;28;20032;-71
2024/03/12 08:48:52;;;;;;;91.03;41.38;;;8.60;99.90;;;;;;5094433;28;20032;-71
2024/03/12 08:51:18;;;;;;;93.30;44.70;;;8.70;99.90;;;;;;5093926;28;20119;-71
2024/03/12 08:53:44;;;;;;;95.03;40.28;;;8.70;99.90;;;;;;5094144;28;20141;-71
2024/03/12 08:56:10;;;;;;;87.18;42.35;;;8.60;99.90;;;;;;5094201;28;20040;-71
2024/03/12 08:58:36;;;;;;;82.63;39.45;;;8.60;99.90;;;;;;5094088;28;20415;-71
2024/03/12 09:01:02;;;;;;;82.95;39.72;;;8.70;99.90;;;;;;5094370;28;20036;-71
2024/03/12 09:03:29;;;;;;;85.18;41.85;;;8.70;99.90;;;;;;5075692;28;20043;-71
2024/03/12 09:05:54;;;;;;;88.47;41.15;;;8.70;99.90;;;;;;5075941;28;20084;-71
2024/03/12 09:08:22;;;;;;;87.43;39.55;;;8.70;99.90;;;;;;5094071;28;20040;-71
2024/03/12 09:10:48;;;;;;;90.93;41.22;;;8.70;99.90;;;;;;5093402;28;20036;-71
2024/03/12 09:13:18;;;;;;;88.60;38.90;;;8.70;99.90;;;;;;5093557;28;20036;-71
2024/03/12 09:15:44;;;;;;;86.60;37.50;;;8.70;99.90;;;;;;5093902;28;20457;-71
2024/03/12 09:18:11;;;;;;;78.00;37.60;;;8.70;99.90;;;;;;5075898;28;20040;-71
2024/03/12 09:20:36;;;;;;;78.68;35.95;;;8.70;99.90;;;;;;5093607;28;20047;-71
2024/03/12 09:23:03;;;;;;;83.22;37.08;;;8.80;99.90;;;;;;5092319;28;20035;-71
2024/03/12 09:25:32;;;;;;;81.40;36.97;;;8.90;99.90;;;;;;5093424;28;20051;-71
2024/03/12 09:27:58;;;;;;;76.18;35.67;;;8.90;99.90;;;;;;5075510;28;20036;-71
2024/03/12 09:30:24;;;;;;;71.30;34.53;;;8.90;99.90;;;;;;5093413;28;20044;-71
2024/03/12 09:32:51;;;;;;;78.47;32.97;;;9.00;99.90;;;;;;5093092;28;20382;-71
2024/03/12 09:35:18;;;;;;;64.82;31.17;;;9.00;99.90;;;;;;5093549;28;20135;-71
2024/03/12 09:37:45;;;;;;;69.30;32.50;;;8.90;99.90;;;;;;5093419;28;20446;-71
2024/03/12 09:40:13;;;;;;;70.60;31.85;;;8.90;99.90;;;;;;5093349;28;20051;-71
2024/03/12 09:42:44;;;;;;;63.40;30.92;;;8.90;99.90;;;;;;5093075;28;20051;-71
2024/03/12 09:45:11;;;;;;;73.03;30.70;;;8.90;99.90;;;;;;5093475;28;20076;-71
2024/03/12 09:47:37;;;;;;;64.45;31.13;;;8.80;99.90;;;;;;5075202;28;20048;-71
2024/03/12 09:50:11;;;;;;;75.97;33.15;;;8.80;99.90;;;;;;5092947;28;20111;-71
2024/03/12 09:52:38;;;;;;;81.53;33.80;;;8.90;99.90;;;;;;5092449;28;20107;-71
2024/03/12 09:55:06;;;;;;;72.47;32.35;;;8.90;99.90;;;;;;5093305;28;20036;-71
2024/03/12 09:57:33;;;;;;;57.13;27.88;;;8.90;99.90;;;;;;5075230;28;20044;-72
2024/03/12 09:59:59;;;;;;;53.22;26.88;;;9.00;99.90;;;;;;5092866;28;20047;-71
2024/03/12 10:02:25;;;;;;;50.45;25.40;;;8.90;99.90;;;;;;5092489;28;20028;-71
2024/03/12 10:04:50;;;;;;;43.97;23.58;;;9.00;99.90;;;;;;5092916;28;20036;-71
2024/03/12 10:07:16;;;;;;;44.05;22.52;;;8.90;99.90;;;;;;5074303;28;20032;-71
2024/03/12 10:09:42;;;;;;;43.25;20.27;;;9.00;99.90;;;;;;5074350;28;20499;-71
2024/03/12 10:12:09;;;;;;;39.05;19.55;;;8.90;99.90;;;;;;5092203;28;20089;-71
2024/03/12 10:14:35;;;;;;;38.08;18.92;;;8.90;99.90;;;;;;5074815;28;20040;-71
2024/03/12 10:17:31;;;;;;;37.20;20.08;;;8.90;99.90;;;;;;5092741;28;20520;-71
2024/03/12 10:20:07;;;;;;;31.25;15.95;;;8.90;99.90;;;;;;5075459;28;20128;-71
2024/03/12 10:22:33;;;;;;;31.65;15.38;;;9.00;99.90;;;;;;5074108;28;20128;-71
2024/03/12 10:25:10;;;;;;;29.55;16.42;;;9.10;99.90;;;;;;5092680;28;20070;-71
2024/03/12 10:27:54;;;;;;;27.73;16.08;;;9.20;99.90;;;;;;5092590;28;20043;-71
2024/03/12 10:30:26;;;;;;;28.45;15.20;;;9.40;99.90;;;;;;5073979;28;20039;-71
2024/03/12 10:32:52;;;;;;;25.42;14.55;;;9.50;99.90;;;;;;5092041;28;20059;-71
2024/03/12 10:35:19;;;;;;;25.50;14.48;;;9.70;99.90;;;;;;5092411;28;20032;-71
2024/03/12 10:37:52;;;;;;;24.38;13.43;;;9.80;99.90;;;;;;5074408;28;20040;-71
2024/03/12 10:40:19;;;;;;;25.08;14.60;;;9.90;99.90;;;;;;5073955;28;20054;-71
2024/03/12 10:42:57;;;;;;;23.77;13.60;;;9.90;99.90;;;;;;5073442;28;20531;-71
2024/03/12 10:45:30;;;;;;;22.10;13.32;;;10.00;99.90;;;;;;5092365;28;20039;-71
2024/03/12 10:47:56;;;;;;;19.87;12.10;;;9.90;99.90;;;;;;5092381;28;20093;-71
2024/03/12 10:50:26;;;;;;;23.88;14.98;;;9.90;99.90;;;;;;5091741;28;20040;-71
2024/03/12 10:52:54;;;;;;;24.52;14.73;;;9.80;99.90;;;;;;5091436;28;20046;-71
2024/03/12 10:55:32;;;;;;;23.90;13.52;;;9.80;99.90;;;;;;5072411;28;20075;-71
2024/03/12 10:58:02;;;;;;;20.05;12.15;;;9.80;99.90;;;;;;5073891;28;20040;-71
2024/03/12 11:00:30;;;;;;;18.92;12.50;;;9.70;99.90;;;;;;5053408;28;20107;-71
2024/03/12 11:02:56;;;;;;;18.85;11.35;;;9.80;99.90;;;;;;5073386;28;20438;-71
2024/03/12 11:05:25;;;;;;;18.15;12.30;;;9.80;99.90;;;;;;5073925;28;20119;-71
2024/03/12 11:07:54;;;;;;;19.45;11.10;;;9.80;99.90;;;;;;5072125;28;20059;-71
2024/03/12 11:10:19;;;;;;;17.55;11.70;;;9.90;99.90;;;;;;5091507;28;20558;-71
2024/03/12 11:12:45;;;;;;;14.32;10.13;;;9.80;99.90;;;;;;5073164;28;20123;-71
2024/03/12 11:15:13;;;;;;;19.30;11.60;;;9.80;99.90;;;;;;5068717;28;20119;-71
2024/03/12 11:17:48;;;;;;;20.23;11.43;;;9.70;99.90;;;;;;5070616;28;20534;-71
2024/03/12 11:20:18;;;;;;;16.25;9.85;;;9.60;99.90;;;;;;5091650;28;20408;-71
2024/03/12 11:22:44;;;;;;;15.93;10.02;;;9.60;99.90;;;;;;5091222;28;20453;-71
2024/03/12 11:25:14;;;;;;;17.42;10.15;;;9.50;99.90;;;;;;5091787;28;20040;-71
2024/03/12 11:27:44;;;;;;;17.17;10.20;;;9.40;99.90;;;;;;5073714;28;20036;-71
2024/03/12 11:30:11;;;;;;;15.00;10.57;;;9.40;99.90;;;;;;5091356;28;20092;-71
2024/03/12 11:32:48;;;;;;;18.13;11.07;;;9.40;99.90;;;;;;5090945;28;20111;-71
2024/03/12 11:35:17;;;;;;;19.27;11.35;;;9.40;99.90;;;;;;5091717;28;20028;-71
2024/03/12 11:38:01;;;;;;;18.63;10.82;;;9.40;99.90;;;;;;5073463;28;20115;-71
2024/03/12 11:40:39;;;;;;;16.63;11.45;;;9.30;99.90;;;;;;5091249;28;20044;-71
2024/03/12 11:43:11;;;;;;;16.88;10.90;;;9.30;99.90;;;;;;5090838;28;20673;-71
2024/03/12 11:45:41;;;;;;;21.23;11.55;;;9.30;99.90;;;;;;5091624;28;20047;-71
2024/03/12 11:48:10;;;;;;;22.80;11.27;;;9.10;99.90;;;;;;5094709;28;20576;-71
2024/03/12 11:50:39;;;;;;;22.83;11.95;;;9.10;99.90;;;;;;5095183;28;20495;-71
2024/03/12 11:53:20;;;;;;;22.98;12.82;;;9.10;99.90;;;;;;5060141;28;20043;-69
2024/03/12 11:56:11;;;;;;;20.98;11.90;;;9.10;99.90;;;;;;5094545;28;20036;-68
2024/03/12 11:58:38;;;;;;;27.23;13.07;;;9.00;99.90;;;;;;5091798;28;20051;-68
2024/03/12 12:01:07;;;;;;;24.63;12.30;;;9.20;99.90;;;;;;5094895;28;20036;-68
2024/03/12 12:03:34;;;;;;;29.33;13.77;;;9.10;99.90;;;;;;5091550;28;20085;-68
2024/03/12 12:06:01;;;;;;;28.83;13.85;;;9.10;99.90;;;;;;5094898;28;20071;-68
2024/03/12 12:08:27;;;;;;;30.25;15.10;;;9.20;99.90;;;;;;5095302;28;20436;-68
2024/03/12 12:10:57;;;;;;;30.35;15.52;;;9.20;99.90;;;;;;5094906;28;20234;-68
2024/03/12 12:13:23;;;;;;;29.50;15.48;;;9.20;99.90;;;;;;5094626;28;20111;-68
2024/03/12 12:16:04;;;;;;;35.35;18.05;;;9.10;99.90;;;;;;5094918;28;20685;-68
2024/03/12 12:18:37;;;;;;;37.08;16.20;;;9.10;99.90;;;;;;5094899;28;20047;-68
2024/03/12 12:21:23;;;;;;;33.75;14.60;;;9.20;99.90;;;;;;5094143;28;20047;-68
2024/03/12 12:23:49;;;;;;;33.88;15.82;;;9.10;99.90;;;;;;5092513;28;20089;-68
2024/03/12 12:26:21;;;;;;;33.42;15.93;;;9.20;99.90;;;;;;5094448;28;20036;-68
2024/03/12 12:28:52;;;;;;;35.22;16.20;;;9.10;99.90;;;;;;5059350;28;20036;-68
2024/03/12 12:31:19;;;;;;;31.70;15.95;;;9.20;99.90;;;;;;5075816;28;20040;-68
2024/03/12 12:33:50;;;;;;;33.08;15.70;;;9.10;99.90;;;;;;5076718;28;20040;-68
2024/03/12 12:36:21;;;;;;;36.22;16.30;;;9.10;99.90;;;;;;5076828;28;20114;-68
2024/03/12 12:38:49;;;;;;;38.70;16.63;;;9.00;99.90;;;;;;5076369;28;20036;-68
2024/03/12 12:41:21;;;;;;;40.05;18.00;;;9.00;99.90;;;;;;5094111;28;20039;-68
2024/03/12 12:43:47;;;;;;;38.80;17.75;;;9.10;99.90;;;;;;5095723;28;20071;-68